sensor_id;sensor_type;location;lat;lon;timestamp;P1;durP1;ratioP1;P2;durP2;ratioP2
31390;SDS011;18022;45.492;11.548;2023-01-31T00:02:07;59.22;;;38.33;;
31390;SDS011;18022;45.492;11.548;2023-01-31T00:04:33;61.80;;;40.30;;
31390;SDS011;18022;45.492;11.548;2023-01-31T00:06:59;61.00;;;39.40;;
31390;SDS011;18022;45.492;11.548;2023-01-31T00:09:25;57.47;;;37.17;;
31390;SDS011;18022;45.492;11.548;2023-01-31T00:11:51;59.63;;;39.00;;
31390;SDS011;18022;45.492;11.548;2023-01-31T00:14:18;66.03;;;39.47;;
31390;SDS011;18022;45.492;11.548;2023-01-31T00:16:44;59.88;;;39.40;;
31390;SDS011;18022;45.492;11.548;2023-01-31T00:19:10;64.78;;;40.72;;
31390;SDS011;18022;45.492;11.548;2023-01-31T00:21:37;64.63;;;42.30;;
31390;SDS011;18022;45.492;11.548;2023-01-31T00:24:07;60.90;;;38.97;;
31390;SDS011;18022;45.492;11.548;2023-01-31T00:26:34;61.22;;;40.42;;
31390;SDS011;18022;45.492;11.548;2023-01-31T00:29:01;61.95;;;39.53;;
31390;SDS011;18022;45.492;11.548;2023-01-31T00:31:29;55.40;;;37.03;;
31390;SDS011;18022;45.492;11.548;2023-01-31T00:33:55;60.53;;;37.78;;
31390;SDS011;18022;45.492;11.548;2023-01-31T00:36:26;58.88;;;38.58;;
31390;SDS011;18022;45.492;11.548;2023-01-31T00:38:53;59.65;;;38.15;;
31390;SDS011;18022;45.492;11.548;2023-01-31T00:41:20;64.63;;;38.90;;
31390;SDS011;18022;45.492;11.548;2023-01-31T00:43:46;61.78;;;38.92;;
31390;SDS011;18022;45.492;11.548;2023-01-31T00:46:12;65.05;;;39.50;;
31390;SDS011;18022;45.492;11.548;2023-01-31T00:48:39;59.72;;;38.15;;
31390;SDS011;18022;45.492;11.548;2023-01-31T00:51:05;64.15;;;38.15;;
31390;SDS011;18022;45.492;11.548;2023-01-31T00:53:31;63.92;;;39.20;;
31390;SDS011;18022;45.492;11.548;2023-01-31T00:56:05;62.33;;;40.03;;
31390;SDS011;18022;45.492;11.548;2023-01-31T00:58:32;58.42;;;38.67;;
31390;SDS011;18022;45.492;11.548;2023-01-31T01:03:33;60.50;;;38.60;;
31390;SDS011;18022;45.492;11.548;2023-01-31T01:05:59;61.45;;;38.78;;
31390;SDS011;18022;45.492;11.548;2023-01-31T01:08:25;56.05;;;37.88;;
31390;SDS011;18022;45.492;11.548;2023-01-31T01:10:52;57.35;;;37.42;;
31390;SDS011;18022;45.492;11.548;2023-01-31T01:13:18;58.20;;;37.55;;
31390;SDS011;18022;45.492;11.548;2023-01-31T01:15:44;63.80;;;37.63;;
31390;SDS011;18022;45.492;11.548;2023-01-31T01:18:10;56.75;;;36.22;;
31390;SDS011;18022;45.492;11.548;2023-01-31T01:20:36;55.38;;;37.40;;
31390;SDS011;18022;45.492;11.548;2023-01-31T01:23:02;60.03;;;38.17;;
31390;SDS011;18022;45.492;11.548;2023-01-31T01:25:29;57.83;;;37.97;;
31390;SDS011;18022;45.492;11.548;2023-01-31T01:27:55;58.50;;;37.80;;
31390;SDS011;18022;45.492;11.548;2023-01-31T01:30:21;59.70;;;39.20;;
31390;SDS011;18022;45.492;11.548;2023-01-31T01:32:47;62.35;;;38.85;;
31390;SDS011;18022;45.492;11.548;2023-01-31T01:35:13;59.20;;;38.13;;
31390;SDS011;18022;45.492;11.548;2023-01-31T01:37:39;62.05;;;39.63;;
31390;SDS011;18022;45.492;11.548;2023-01-31T01:40:06;63.92;;;39.88;;
31390;SDS011;18022;45.492;11.548;2023-01-31T01:42:33;59.08;;;38.20;;
31390;SDS011;18022;45.492;11.548;2023-01-31T01:45:00;58.22;;;37.78;;
31390;SDS011;18022;45.492;11.548;2023-01-31T01:50:05;59.08;;;38.00;;
31390;SDS011;18022;45.492;11.548;2023-01-31T01:52:33;62.03;;;38.72;;
31390;SDS011;18022;45.492;11.548;2023-01-31T01:55:03;58.80;;;37.70;;
31390;SDS011;18022;45.492;11.548;2023-01-31T01:57:32;58.90;;;37.67;;
31390;SDS011;18022;45.492;11.548;2023-01-31T02:02:29;60.70;;;39.53;;
31390;SDS011;18022;45.492;11.548;2023-01-31T02:04:55;60.35;;;39.22;;
31390;SDS011;18022;45.492;11.548;2023-01-31T02:07:21;56.38;;;38.13;;
31390;SDS011;18022;45.492;11.548;2023-01-31T02:09:49;60.92;;;39.17;;
31390;SDS011;18022;45.492;11.548;2023-01-31T02:12:18;63.80;;;39.30;;
31390;SDS011;18022;45.492;11.548;2023-01-31T02:14:44;61.03;;;38.40;;
31390;SDS011;18022;45.492;11.548;2023-01-31T02:17:12;59.45;;;38.40;;
31390;SDS011;18022;45.492;11.548;2023-01-31T02:22:09;56.88;;;37.40;;
31390;SDS011;18022;45.492;11.548;2023-01-31T02:24:43;55.60;;;37.03;;
31390;SDS011;18022;45.492;11.548;2023-01-31T02:32:44;60.20;;;36.83;;
31390;SDS011;18022;45.492;11.548;2023-01-31T02:43:02;58.17;;;37.13;;
31390;SDS011;18022;45.492;11.548;2023-01-31T02:45:32;64.95;;;39.90;;
31390;SDS011;18022;45.492;11.548;2023-01-31T02:50:30;61.35;;;38.92;;
31390;SDS011;18022;45.492;11.548;2023-01-31T02:52:58;60.30;;;37.90;;
31390;SDS011;18022;45.492;11.548;2023-01-31T02:55:35;62.65;;;38.40;;
31390;SDS011;18022;45.492;11.548;2023-01-31T02:58:21;61.83;;;38.15;;
31390;SDS011;18022;45.492;11.548;2023-01-31T03:00:50;59.78;;;36.63;;
31390;SDS011;18022;45.492;11.548;2023-01-31T03:03:34;63.38;;;38.80;;
31390;SDS011;18022;45.492;11.548;2023-01-31T03:08:47;62.58;;;38.70;;
31390;SDS011;18022;45.492;11.548;2023-01-31T03:11:15;56.13;;;37.10;;
31390;SDS011;18022;45.492;11.548;2023-01-31T03:19:22;64.45;;;38.00;;
31390;SDS011;18022;45.492;11.548;2023-01-31T03:21:56;58.42;;;36.05;;
31390;SDS011;18022;45.492;11.548;2023-01-31T03:24:25;58.95;;;36.85;;
31390;SDS011;18022;45.492;11.548;2023-01-31T03:26:54;59.30;;;36.80;;
31390;SDS011;18022;45.492;11.548;2023-01-31T03:29:22;60.08;;;37.92;;
31390;SDS011;18022;45.492;11.548;2023-01-31T03:32:31;58.28;;;36.60;;
31390;SDS011;18022;45.492;11.548;2023-01-31T03:34:37;61.78;;;37.05;;
31390;SDS011;18022;45.492;11.548;2023-01-31T03:37:20;58.10;;;35.63;;
31390;SDS011;18022;45.492;11.548;2023-01-31T03:39:58;63.13;;;38.08;;
31390;SDS011;18022;45.492;11.548;2023-01-31T03:44:52;61.03;;;37.08;;
31390;SDS011;18022;45.492;11.548;2023-01-31T03:47:24;61.35;;;37.60;;
31390;SDS011;18022;45.492;11.548;2023-01-31T03:49:52;60.25;;;37.08;;
31390;SDS011;18022;45.492;11.548;2023-01-31T03:52:21;62.95;;;38.03;;
31390;SDS011;18022;45.492;11.548;2023-01-31T03:54:52;65.15;;;37.85;;
31390;SDS011;18022;45.492;11.548;2023-01-31T03:57:21;65.18;;;39.70;;
31390;SDS011;18022;45.492;11.548;2023-01-31T03:59:49;65.72;;;40.63;;
31390;SDS011;18022;45.492;11.548;2023-01-31T04:02:18;64.60;;;38.15;;
31390;SDS011;18022;45.492;11.548;2023-01-31T04:04:49;63.22;;;36.75;;
31390;SDS011;18022;45.492;11.548;2023-01-31T04:07:16;57.45;;;35.90;;
31390;SDS011;18022;45.492;11.548;2023-01-31T04:09:42;56.97;;;34.72;;
31390;SDS011;18022;45.492;11.548;2023-01-31T04:12:08;54.55;;;34.28;;
31390;SDS011;18022;45.492;11.548;2023-01-31T04:14:36;61.80;;;35.58;;
31390;SDS011;18022;45.492;11.548;2023-01-31T04:17:02;58.42;;;34.47;;
31390;SDS011;18022;45.492;11.548;2023-01-31T04:19:28;57.72;;;34.75;;
31390;SDS011;18022;45.492;11.548;2023-01-31T04:21:54;62.45;;;36.85;;
31390;SDS011;18022;45.492;11.548;2023-01-31T04:24:20;58.28;;;35.45;;
31390;SDS011;18022;45.492;11.548;2023-01-31T04:26:47;57.17;;;35.33;;
31390;SDS011;18022;45.492;11.548;2023-01-31T04:29:13;54.55;;;34.40;;
31390;SDS011;18022;45.492;11.548;2023-01-31T04:31:39;55.45;;;33.72;;
31390;SDS011;18022;45.492;11.548;2023-01-31T04:34:05;55.47;;;33.88;;
31390;SDS011;18022;45.492;11.548;2023-01-31T04:36:31;58.10;;;35.05;;
31390;SDS011;18022;45.492;11.548;2023-01-31T04:38:57;56.72;;;34.40;;
31390;SDS011;18022;45.492;11.548;2023-01-31T04:41:26;58.13;;;35.75;;
31390;SDS011;18022;45.492;11.548;2023-01-31T04:43:52;54.75;;;33.75;;
31390;SDS011;18022;45.492;11.548;2023-01-31T04:46:18;54.83;;;34.35;;
31390;SDS011;18022;45.492;11.548;2023-01-31T04:48:44;57.47;;;35.40;;
31390;SDS011;18022;45.492;11.548;2023-01-31T04:51:10;59.75;;;35.55;;
31390;SDS011;18022;45.492;11.548;2023-01-31T04:53:36;59.95;;;36.42;;
31390;SDS011;18022;45.492;11.548;2023-01-31T04:56:03;52.15;;;33.45;;
31390;SDS011;18022;45.492;11.548;2023-01-31T04:58:29;56.85;;;34.70;;
31390;SDS011;18022;45.492;11.548;2023-01-31T05:00:55;60.35;;;35.78;;
31390;SDS011;18022;45.492;11.548;2023-01-31T05:03:22;54.35;;;34.17;;
31390;SDS011;18022;45.492;11.548;2023-01-31T05:05:48;55.72;;;34.55;;
31390;SDS011;18022;45.492;11.548;2023-01-31T05:08:14;59.13;;;35.15;;
31390;SDS011;18022;45.492;11.548;2023-01-31T05:10:41;54.85;;;34.20;;
31390;SDS011;18022;45.492;11.548;2023-01-31T05:13:07;52.63;;;33.67;;
31390;SDS011;18022;45.492;11.548;2023-01-31T05:15:34;53.70;;;33.13;;
31390;SDS011;18022;45.492;11.548;2023-01-31T05:18:00;53.33;;;34.95;;
31390;SDS011;18022;45.492;11.548;2023-01-31T05:20:29;59.58;;;35.50;;
31390;SDS011;18022;45.492;11.548;2023-01-31T05:22:56;58.10;;;35.67;;
31390;SDS011;18022;45.492;11.548;2023-01-31T05:25:23;60.88;;;35.97;;
31390;SDS011;18022;45.492;11.548;2023-01-31T05:27:49;57.40;;;34.35;;
31390;SDS011;18022;45.492;11.548;2023-01-31T05:30:17;57.33;;;35.55;;
31390;SDS011;18022;45.492;11.548;2023-01-31T05:32:43;55.75;;;34.50;;
31390;SDS011;18022;45.492;11.548;2023-01-31T05:35:10;59.97;;;34.65;;
31390;SDS011;18022;45.492;11.548;2023-01-31T05:37:36;58.25;;;35.58;;
31390;SDS011;18022;45.492;11.548;2023-01-31T05:40:02;58.40;;;35.45;;
31390;SDS011;18022;45.492;11.548;2023-01-31T05:42:28;62.55;;;35.78;;
31390;SDS011;18022;45.492;11.548;2023-01-31T05:44:54;58.35;;;34.55;;
31390;SDS011;18022;45.492;11.548;2023-01-31T05:47:20;55.40;;;34.35;;
31390;SDS011;18022;45.492;11.548;2023-01-31T05:49:48;60.22;;;35.17;;
31390;SDS011;18022;45.492;11.548;2023-01-31T05:52:14;63.00;;;37.00;;
31390;SDS011;18022;45.492;11.548;2023-01-31T05:54:40;56.42;;;32.75;;
31390;SDS011;18022;45.492;11.548;2023-01-31T05:57:06;55.42;;;32.88;;
31390;SDS011;18022;45.492;11.548;2023-01-31T05:59:32;52.67;;;32.72;;
31390;SDS011;18022;45.492;11.548;2023-01-31T06:01:58;52.50;;;31.70;;
31390;SDS011;18022;45.492;11.548;2023-01-31T06:04:24;54.47;;;33.03;;
31390;SDS011;18022;45.492;11.548;2023-01-31T06:06:50;60.15;;;33.65;;
31390;SDS011;18022;45.492;11.548;2023-01-31T06:09:17;57.90;;;33.83;;
31390;SDS011;18022;45.492;11.548;2023-01-31T06:11:43;50.40;;;31.20;;
31390;SDS011;18022;45.492;11.548;2023-01-31T06:14:09;54.47;;;32.28;;
31390;SDS011;18022;45.492;11.548;2023-01-31T06:16:35;45.88;;;28.77;;
31390;SDS011;18022;45.492;11.548;2023-01-31T06:19:01;58.30;;;32.55;;
31390;SDS011;18022;45.492;11.548;2023-01-31T06:21:27;54.45;;;31.83;;
31390;SDS011;18022;45.492;11.548;2023-01-31T06:23:53;61.78;;;36.15;;
31390;SDS011;18022;45.492;11.548;2023-01-31T06:26:19;61.20;;;36.88;;
31390;SDS011;18022;45.492;11.548;2023-01-31T06:28:45;62.53;;;36.03;;
31390;SDS011;18022;45.492;11.548;2023-01-31T06:31:11;56.72;;;35.28;;
31390;SDS011;18022;45.492;11.548;2023-01-31T06:33:37;52.95;;;30.60;;
31390;SDS011;18022;45.492;11.548;2023-01-31T06:36:04;53.42;;;33.25;;
31390;SDS011;18022;45.492;11.548;2023-01-31T06:38:30;59.00;;;34.85;;
31390;SDS011;18022;45.492;11.548;2023-01-31T06:40:56;43.15;;;25.85;;
31390;SDS011;18022;45.492;11.548;2023-01-31T06:43:22;59.92;;;35.42;;
31390;SDS011;18022;45.492;11.548;2023-01-31T06:45:48;58.10;;;34.78;;
31390;SDS011;18022;45.492;11.548;2023-01-31T06:48:14;60.63;;;34.47;;
31390;SDS011;18022;45.492;11.548;2023-01-31T06:50:41;60.80;;;37.97;;
31390;SDS011;18022;45.492;11.548;2023-01-31T06:53:07;61.40;;;37.72;;
31390;SDS011;18022;45.492;11.548;2023-01-31T06:55:33;61.00;;;37.05;;
31390;SDS011;18022;45.492;11.548;2023-01-31T06:57:59;51.15;;;31.35;;
31390;SDS011;18022;45.492;11.548;2023-01-31T07:00:25;49.28;;;30.73;;
31390;SDS011;18022;45.492;11.548;2023-01-31T07:02:51;47.80;;;29.48;;
31390;SDS011;18022;45.492;11.548;2023-01-31T07:05:18;48.20;;;30.23;;
31390;SDS011;18022;45.492;11.548;2023-01-31T07:07:45;49.13;;;29.85;;
31390;SDS011;18022;45.492;11.548;2023-01-31T07:10:11;47.00;;;28.85;;
31390;SDS011;18022;45.492;11.548;2023-01-31T07:12:38;49.95;;;30.42;;
31390;SDS011;18022;45.492;11.548;2023-01-31T07:15:04;51.53;;;30.50;;
31390;SDS011;18022;45.492;11.548;2023-01-31T07:17:30;46.30;;;29.17;;
31390;SDS011;18022;45.492;11.548;2023-01-31T07:19:57;51.20;;;29.92;;
31390;SDS011;18022;45.492;11.548;2023-01-31T07:22:23;55.47;;;31.65;;
31390;SDS011;18022;45.492;11.548;2023-01-31T07:24:49;49.47;;;30.33;;
31390;SDS011;18022;45.492;11.548;2023-01-31T07:27:15;53.25;;;31.08;;
31390;SDS011;18022;45.492;11.548;2023-01-31T07:29:41;58.20;;;33.03;;
31390;SDS011;18022;45.492;11.548;2023-01-31T07:32:08;58.75;;;34.13;;
31390;SDS011;18022;45.492;11.548;2023-01-31T07:34:34;53.35;;;33.47;;
31390;SDS011;18022;45.492;11.548;2023-01-31T07:37:00;55.72;;;32.85;;
31390;SDS011;18022;45.492;11.548;2023-01-31T07:39:27;67.07;;;43.00;;
31390;SDS011;18022;45.492;11.548;2023-01-31T07:41:53;65.68;;;38.30;;
31390;SDS011;18022;45.492;11.548;2023-01-31T07:44:19;68.18;;;36.30;;
31390;SDS011;18022;45.492;11.548;2023-01-31T07:46:45;65.85;;;38.83;;
31390;SDS011;18022;45.492;11.548;2023-01-31T07:49:12;67.88;;;41.17;;
31390;SDS011;18022;45.492;11.548;2023-01-31T07:51:38;68.82;;;40.78;;
31390;SDS011;18022;45.492;11.548;2023-01-31T07:54:05;67.93;;;39.03;;
31390;SDS011;18022;45.492;11.548;2023-01-31T07:56:31;60.10;;;35.70;;
31390;SDS011;18022;45.492;11.548;2023-01-31T07:58:57;61.40;;;36.05;;
31390;SDS011;18022;45.492;11.548;2023-01-31T08:01:24;60.10;;;36.28;;
31390;SDS011;18022;45.492;11.548;2023-01-31T08:04:10;46.85;;;28.77;;
31390;SDS011;18022;45.492;11.548;2023-01-31T08:06:37;52.17;;;29.25;;
31390;SDS011;18022;45.492;11.548;2023-01-31T08:09:04;55.27;;;31.07;;
31390;SDS011;18022;45.492;11.548;2023-01-31T08:11:30;53.80;;;28.50;;
31390;SDS011;18022;45.492;11.548;2023-01-31T08:13:56;50.15;;;29.27;;
31390;SDS011;18022;45.492;11.548;2023-01-31T08:16:22;48.00;;;28.15;;
31390;SDS011;18022;45.492;11.548;2023-01-31T08:18:48;48.67;;;28.30;;
31390;SDS011;18022;45.492;11.548;2023-01-31T08:21:15;54.58;;;30.85;;
31390;SDS011;18022;45.492;11.548;2023-01-31T08:23:41;47.47;;;28.85;;
31390;SDS011;18022;45.492;11.548;2023-01-31T08:26:09;48.40;;;25.73;;
31390;SDS011;18022;45.492;11.548;2023-01-31T08:28:36;45.65;;;26.77;;
31390;SDS011;18022;45.492;11.548;2023-01-31T08:31:03;49.70;;;28.90;;
31390;SDS011;18022;45.492;11.548;2023-01-31T08:33:29;49.70;;;29.42;;
31390;SDS011;18022;45.492;11.548;2023-01-31T08:35:55;49.97;;;30.08;;
31390;SDS011;18022;45.492;11.548;2023-01-31T08:38:21;50.47;;;28.00;;
31390;SDS011;18022;45.492;11.548;2023-01-31T08:40:47;46.45;;;27.33;;
31390;SDS011;18022;45.492;11.548;2023-01-31T08:43:14;47.78;;;26.98;;
31390;SDS011;18022;45.492;11.548;2023-01-31T08:45:40;45.00;;;25.60;;
31390;SDS011;18022;45.492;11.548;2023-01-31T08:48:07;48.03;;;27.10;;
31390;SDS011;18022;45.492;11.548;2023-01-31T08:50:33;52.45;;;32.20;;
31390;SDS011;18022;45.492;11.548;2023-01-31T08:53:00;55.08;;;34.00;;
31390;SDS011;18022;45.492;11.548;2023-01-31T08:55:26;52.78;;;32.13;;
31390;SDS011;18022;45.492;11.548;2023-01-31T08:57:52;53.72;;;33.92;;
31390;SDS011;18022;45.492;11.548;2023-01-31T09:00:19;62.38;;;36.78;;
31390;SDS011;18022;45.492;11.548;2023-01-31T09:02:58;64.90;;;39.55;;
31390;SDS011;18022;45.492;11.548;2023-01-31T09:05:26;70.70;;;42.33;;
31390;SDS011;18022;45.492;11.548;2023-01-31T09:07:52;75.35;;;42.83;;
31390;SDS011;18022;45.492;11.548;2023-01-31T09:10:19;69.95;;;41.85;;
31390;SDS011;18022;45.492;11.548;2023-01-31T09:12:45;75.82;;;45.10;;
31390;SDS011;18022;45.492;11.548;2023-01-31T09:15:12;69.53;;;44.22;;
31390;SDS011;18022;45.492;11.548;2023-01-31T09:17:38;75.13;;;44.10;;
31390;SDS011;18022;45.492;11.548;2023-01-31T09:20:05;75.45;;;45.58;;
31390;SDS011;18022;45.492;11.548;2023-01-31T09:22:33;65.50;;;42.53;;
31390;SDS011;18022;45.492;11.548;2023-01-31T09:24:59;70.18;;;42.60;;
31390;SDS011;18022;45.492;11.548;2023-01-31T09:27:26;69.40;;;41.47;;
31390;SDS011;18022;45.492;11.548;2023-01-31T09:29:52;63.67;;;37.97;;
31390;SDS011;18022;45.492;11.548;2023-01-31T09:32:18;70.97;;;39.85;;
31390;SDS011;18022;45.492;11.548;2023-01-31T09:34:45;67.57;;;40.47;;
31390;SDS011;18022;45.492;11.548;2023-01-31T09:37:13;67.38;;;41.28;;
31390;SDS011;18022;45.492;11.548;2023-01-31T09:39:39;34.92;;;21.65;;
31390;SDS011;18022;45.492;11.548;2023-01-31T09:42:26;68.38;;;39.90;;
31390;SDS011;18022;45.492;11.548;2023-01-31T09:44:55;73.55;;;41.90;;
31390;SDS011;18022;45.492;11.548;2023-01-31T09:47:25;73.18;;;41.90;;
31390;SDS011;18022;45.492;11.548;2023-01-31T09:52:31;72.85;;;41.33;;
31390;SDS011;18022;45.492;11.548;2023-01-31T09:54:58;93.53;;;50.47;;
31390;SDS011;18022;45.492;11.548;2023-01-31T10:05:18;87.03;;;49.97;;
31390;SDS011;18022;45.492;11.548;2023-01-31T10:07:48;82.07;;;46.20;;
31390;SDS011;18022;45.492;11.548;2023-01-31T10:12:54;74.65;;;45.17;;
31390;SDS011;18022;45.492;11.548;2023-01-31T10:15:43;66.03;;;43.03;;
31390;SDS011;18022;45.492;11.548;2023-01-31T10:18:12;64.90;;;42.35;;
31390;SDS011;18022;45.492;11.548;2023-01-31T10:20:46;33.63;;;19.70;;
31390;SDS011;18022;45.492;11.548;2023-01-31T10:25:48;57.97;;;36.65;;
31390;SDS011;18022;45.492;11.548;2023-01-31T10:28:17;60.55;;;38.00;;
31390;SDS011;18022;45.492;11.548;2023-01-31T10:30:47;61.15;;;37.90;;
31390;SDS011;18022;45.492;11.548;2023-01-31T10:33:23;55.63;;;36.00;;
31390;SDS011;18022;45.492;11.548;2023-01-31T10:35:51;55.42;;;35.92;;
31390;SDS011;18022;45.492;11.548;2023-01-31T10:38:20;46.78;;;29.88;;
31390;SDS011;18022;45.492;11.548;2023-01-31T10:40:49;29.98;;;18.80;;
31390;SDS011;18022;45.492;11.548;2023-01-31T10:43:20;29.00;;;17.95;;
31390;SDS011;18022;45.492;11.548;2023-01-31T10:45:47;26.55;;;18.25;;
31390;SDS011;18022;45.492;11.548;2023-01-31T10:48:20;27.35;;;18.50;;
31390;SDS011;18022;45.492;11.548;2023-01-31T10:56:33;36.45;;;23.08;;
31390;SDS011;18022;45.492;11.548;2023-01-31T10:59:01;44.90;;;25.70;;
31390;SDS011;18022;45.492;11.548;2023-01-31T11:01:29;42.33;;;24.27;;
31390;SDS011;18022;45.492;11.548;2023-01-31T11:03:55;37.42;;;25.15;;
31390;SDS011;18022;45.492;11.548;2023-01-31T11:06:22;37.90;;;23.40;;
31390;SDS011;18022;45.492;11.548;2023-01-31T11:08:49;39.50;;;26.17;;
31390;SDS011;18022;45.492;11.548;2023-01-31T11:11:17;37.70;;;25.33;;
31390;SDS011;18022;45.492;11.548;2023-01-31T11:16:29;39.70;;;24.98;;
31390;SDS011;18022;45.492;11.548;2023-01-31T11:18:56;39.72;;;25.85;;
31390;SDS011;18022;45.492;11.548;2023-01-31T11:21:24;36.45;;;23.90;;
31390;SDS011;18022;45.492;11.548;2023-01-31T11:26:27;35.95;;;22.77;;
31390;SDS011;18022;45.492;11.548;2023-01-31T11:31:24;34.95;;;21.77;;
31390;SDS011;18022;45.492;11.548;2023-01-31T11:33:57;35.00;;;22.42;;
31390;SDS011;18022;45.492;11.548;2023-01-31T11:36:23;35.53;;;21.58;;
31390;SDS011;18022;45.492;11.548;2023-01-31T11:38:50;37.10;;;24.17;;
31390;SDS011;18022;45.492;11.548;2023-01-31T11:41:39;40.25;;;25.65;;
31390;SDS011;18022;45.492;11.548;2023-01-31T11:44:07;43.88;;;27.10;;
31390;SDS011;18022;45.492;11.548;2023-01-31T11:47:10;40.65;;;26.27;;
31390;SDS011;18022;45.492;11.548;2023-01-31T11:49:35;41.95;;;27.02;;
31390;SDS011;18022;45.492;11.548;2023-01-31T11:52:21;49.22;;;28.98;;
31390;SDS011;18022;45.492;11.548;2023-01-31T11:54:56;42.22;;;26.30;;
31390;SDS011;18022;45.492;11.548;2023-01-31T11:59:49;42.55;;;26.83;;
31390;SDS011;18022;45.492;11.548;2023-01-31T12:04:48;44.92;;;27.88;;
31390;SDS011;18022;45.492;11.548;2023-01-31T12:07:25;45.20;;;28.63;;
31390;SDS011;18022;45.492;11.548;2023-01-31T12:09:53;44.75;;;29.08;;
31390;SDS011;18022;45.492;11.548;2023-01-31T12:12:29;45.55;;;28.58;;
31390;SDS011;18022;45.492;11.548;2023-01-31T12:15:00;44.40;;;29.17;;
31390;SDS011;18022;45.492;11.548;2023-01-31T12:17:27;42.75;;;29.13;;
31390;SDS011;18022;45.492;11.548;2023-01-31T12:23:01;45.50;;;27.80;;
31390;SDS011;18022;45.492;11.548;2023-01-31T12:51:25;39.08;;;25.48;;
31390;SDS011;18022;45.492;11.548;2023-01-31T12:59:08;35.90;;;23.98;;
31390;SDS011;18022;45.492;11.548;2023-01-31T13:06:44;41.40;;;25.50;;
31390;SDS011;18022;45.492;11.548;2023-01-31T13:09:17;35.15;;;23.38;;
31390;SDS011;18022;45.492;11.548;2023-01-31T13:11:49;40.40;;;25.98;;
31390;SDS011;18022;45.492;11.548;2023-01-31T13:14:21;37.50;;;25.40;;
31390;SDS011;18022;45.492;11.548;2023-01-31T13:16:50;37.97;;;25.05;;
31390;SDS011;18022;45.492;11.548;2023-01-31T13:21:43;40.25;;;24.60;;
31390;SDS011;18022;45.492;11.548;2023-01-31T13:24:11;38.15;;;23.10;;
31390;SDS011;18022;45.492;11.548;2023-01-31T13:29:43;37.20;;;23.15;;
31390;SDS011;18022;45.492;11.548;2023-01-31T13:37:14;35.55;;;22.63;;
31390;SDS011;18022;45.492;11.548;2023-01-31T13:39:47;34.22;;;21.48;;
31390;SDS011;18022;45.492;11.548;2023-01-31T13:42:14;33.10;;;20.90;;
31390;SDS011;18022;45.492;11.548;2023-01-31T13:44:41;33.05;;;21.10;;
31390;SDS011;18022;45.492;11.548;2023-01-31T13:52:09;36.15;;;20.65;;
31390;SDS011;18022;45.492;11.548;2023-01-31T13:54:38;29.83;;;17.88;;
31390;SDS011;18022;45.492;11.548;2023-01-31T13:57:05;26.67;;;17.52;;
31390;SDS011;18022;45.492;11.548;2023-01-31T13:59:32;28.52;;;17.75;;
31390;SDS011;18022;45.492;11.548;2023-01-31T14:02:00;27.90;;;16.30;;
31390;SDS011;18022;45.492;11.548;2023-01-31T14:04:36;20.27;;;13.07;;
31390;SDS011;18022;45.492;11.548;2023-01-31T14:09:34;20.75;;;11.55;;
31390;SDS011;18022;45.492;11.548;2023-01-31T14:22:18;21.92;;;13.23;;
31390;SDS011;18022;45.492;11.548;2023-01-31T14:35:01;19.17;;;12.90;;
31390;SDS011;18022;45.492;11.548;2023-01-31T14:42:41;25.48;;;17.40;;
31390;SDS011;18022;45.492;11.548;2023-01-31T14:53:02;30.35;;;20.75;;
31390;SDS011;18022;45.492;11.548;2023-01-31T14:57:57;36.38;;;22.95;;
31390;SDS011;18022;45.492;11.548;2023-01-31T15:00:37;43.00;;;25.52;;
31390;SDS011;18022;45.492;11.548;2023-01-31T15:06:06;41.33;;;26.50;;
31390;SDS011;18022;45.492;11.548;2023-01-31T15:11:00;99.13;;;49.15;;
31390;SDS011;18022;45.492;11.548;2023-01-31T15:13:37;67.28;;;45.20;;
31390;SDS011;18022;45.492;11.548;2023-01-31T15:16:05;141.37;;;65.13;;
31390;SDS011;18022;45.492;11.548;2023-01-31T15:18:32;74.35;;;40.63;;
31390;SDS011;18022;45.492;11.548;2023-01-31T15:20:59;44.67;;;29.05;;
31390;SDS011;18022;45.492;11.548;2023-01-31T15:25:53;81.13;;;46.20;;
31390;SDS011;18022;45.492;11.548;2023-01-31T15:30:46;60.40;;;39.28;;
31390;SDS011;18022;45.492;11.548;2023-01-31T15:41:09;67.63;;;41.53;;
31390;SDS011;18022;45.492;11.548;2023-01-31T15:43:40;45.78;;;27.65;;
31390;SDS011;18022;45.492;11.548;2023-01-31T15:46:40;79.65;;;43.47;;
31390;SDS011;18022;45.492;11.548;2023-01-31T15:49:00;66.90;;;45.90;;
31390;SDS011;18022;45.492;11.548;2023-01-31T15:51:26;64.43;;;43.28;;
31390;SDS011;18022;45.492;11.548;2023-01-31T15:54:00;66.00;;;43.35;;
31390;SDS011;18022;45.492;11.548;2023-01-31T15:56:26;72.07;;;48.05;;
31390;SDS011;18022;45.492;11.548;2023-01-31T15:58:54;67.75;;;44.38;;
31390;SDS011;18022;45.492;11.548;2023-01-31T16:01:20;64.13;;;40.92;;
31390;SDS011;18022;45.492;11.548;2023-01-31T16:03:51;89.85;;;54.17;;
31390;SDS011;18022;45.492;11.548;2023-01-31T16:06:25;85.32;;;51.92;;
31390;SDS011;18022;45.492;11.548;2023-01-31T16:08:53;85.65;;;51.70;;
31390;SDS011;18022;45.492;11.548;2023-01-31T16:11:21;172.32;;;101.70;;
31390;SDS011;18022;45.492;11.548;2023-01-31T16:13:47;167.70;;;105.75;;
31390;SDS011;18022;45.492;11.548;2023-01-31T16:16:13;94.75;;;58.25;;
31390;SDS011;18022;45.492;11.548;2023-01-31T16:18:41;75.47;;;49.05;;
31390;SDS011;18022;45.492;11.548;2023-01-31T16:24:00;87.28;;;56.55;;
31390;SDS011;18022;45.492;11.548;2023-01-31T16:26:27;109.47;;;64.50;;
31390;SDS011;18022;45.492;11.548;2023-01-31T16:28:56;109.15;;;63.78;;
31390;SDS011;18022;45.492;11.548;2023-01-31T16:31:23;96.65;;;57.08;;
31390;SDS011;18022;45.492;11.548;2023-01-31T16:33:51;94.72;;;56.92;;
31390;SDS011;18022;45.492;11.548;2023-01-31T16:36:22;147.63;;;83.47;;
31390;SDS011;18022;45.492;11.548;2023-01-31T16:38:55;117.95;;;67.32;;
31390;SDS011;18022;45.492;11.548;2023-01-31T16:44:11;94.05;;;55.80;;
31390;SDS011;18022;45.492;11.548;2023-01-31T16:46:39;76.05;;;48.80;;
31390;SDS011;18022;45.492;11.548;2023-01-31T16:49:27;70.75;;;46.13;;
31390;SDS011;18022;45.492;11.548;2023-01-31T16:51:54;75.95;;;48.58;;
31390;SDS011;18022;45.492;11.548;2023-01-31T17:02:08;53.90;;;35.17;;
31390;SDS011;18022;45.492;11.548;2023-01-31T17:04:38;53.95;;;36.78;;
31390;SDS011;18022;45.492;11.548;2023-01-31T17:07:05;61.63;;;35.45;;
31390;SDS011;18022;45.492;11.548;2023-01-31T17:09:36;51.97;;;33.78;;
31390;SDS011;18022;45.492;11.548;2023-01-31T17:12:02;58.25;;;36.08;;
31390;SDS011;18022;45.492;11.548;2023-01-31T17:14:30;52.05;;;34.58;;
31390;SDS011;18022;45.492;11.548;2023-01-31T17:16:58;61.53;;;39.60;;
31390;SDS011;18022;45.492;11.548;2023-01-31T17:19:25;74.50;;;45.97;;
31390;SDS011;18022;45.492;11.548;2023-01-31T17:21:51;70.38;;;43.78;;
31390;SDS011;18022;45.492;11.548;2023-01-31T17:24:18;79.40;;;49.30;;
31390;SDS011;18022;45.492;11.548;2023-01-31T17:26:46;103.05;;;58.65;;
31390;SDS011;18022;45.492;11.548;2023-01-31T17:29:12;84.30;;;52.92;;
31390;SDS011;18022;45.492;11.548;2023-01-31T17:31:38;94.47;;;49.58;;